Time;durP1;ratioP1;P1;durP2;ratioP2;P2;SDS_P1;SDS_P2;PMS_P1;PMS_P2;Temp;Humidity;BMP_temperature;BMP_pressure;BME280_temperature;BME280_humidity;BME280_pressure;Samples;Min_cycle;Max_cycle;Signal;HPM_P1;HPM_P2
2020/12/04 00:01:48;;;;;;;25.00;17.93;;;3.80;99.90;;;;;;5031853;28;20472;-87
2020/12/04 00:04:14;;;;;;;25.00;18.37;;;3.90;99.90;;;;;;5032072;28;20571;-87
2020/12/04 00:06:41;;;;;;;27.13;20.27;;;3.80;99.90;;;;;;5031250;28;20444;-86
2020/12/04 00:09:07;;;;;;;34.07;22.37;;;3.80;99.90;;;;;;5026175;28;20457;-86
2020/12/04 00:11:36;;;;;;;25.83;19.40;;;3.80;99.90;;;;;;5031240;28;20450;-87
2020/12/04 00:14:02;;;;;;;25.20;19.52;;;3.90;99.90;;;;;;5031649;28;20447;-88
2020/12/04 00:16:29;;;;;;;25.10;17.90;;;3.80;99.90;;;;;;5031404;28;20661;-86
2020/12/04 00:18:55;;;;;;;27.17;19.03;;;3.80;99.90;;;;;;5031712;28;20456;-86
2020/12/04 00:21:22;;;;;;;29.08;20.73;;;3.90;99.90;;;;;;5037824;28;20428;-87
2020/12/04 00:23:48;;;;;;;27.97;20.50;;;3.80;99.90;;;;;;5048473;28;20225;-87
2020/12/04 00:26:14;;;;;;;25.70;19.20;;;3.80;99.90;;;;;;5035739;28;20522;-87
2020/12/04 00:28:40;;;;;;;33.57;22.13;;;3.90;99.90;;;;;;5031885;28;21028;-88
2020/12/04 00:31:06;;;;;;;29.73;20.73;;;3.90;99.90;;;;;;5029566;28;20807;-88
2020/12/04 00:33:33;;;;;;;28.33;20.75;;;3.90;99.90;;;;;;5031838;28;20813;-88
2020/12/04 00:35:59;;;;;;;25.50;19.23;;;3.90;99.90;;;;;;5030865;28;20244;-87
2020/12/04 00:38:25;;;;;;;28.53;20.87;;;3.80;99.90;;;;;;5031686;28;20225;-87
2020/12/04 00:40:52;;;;;;;30.00;21.65;;;3.80;99.90;;;;;;5029528;28;20509;-86
2020/12/04 00:43:18;;;;;;;24.42;17.65;;;3.70;99.90;;;;;;5031455;28;20706;-87
2020/12/04 00:45:44;;;;;;;24.80;19.17;;;3.60;99.90;;;;;;5031087;28;20208;-87
2020/12/04 00:48:10;;;;;;;24.27;18.38;;;3.60;99.90;;;;;;5031292;28;20470;-87
2020/12/04 00:50:37;;;;;;;25.80;17.43;;;3.60;99.90;;;;;;5029525;28;20200;-87
2020/12/04 00:53:07;;;;;;;25.63;18.53;;;3.70;99.90;;;;;;5031342;28;20967;-87
2020/12/04 00:55:33;;;;;;;24.83;19.17;;;3.70;99.90;;;;;;5030965;28;20527;-87
2020/12/04 00:58:00;;;;;;;28.43;19.50;;;3.70;99.90;;;;;;5030994;28;20436;-86
2020/12/04 01:00:26;;;;;;;25.10;19.20;;;3.70;99.90;;;;;;5031054;28;20441;-87
2020/12/04 01:02:52;;;;;;;27.30;19.95;;;3.70;99.90;;;;;;5030176;28;20491;-87
2020/12/04 01:05:18;;;;;;;24.80;19.10;;;3.70;99.90;;;;;;5032300;28;20196;-85
2020/12/04 01:07:45;;;;;;;27.00;21.15;;;3.80;99.90;;;;;;5037829;28;20450;-86
2020/12/04 01:10:11;;;;;;;26.83;20.43;;;3.80;99.90;;;;;;5034441;28;20200;-87
2020/12/04 01:12:42;;;;;;;28.00;20.93;;;3.80;99.90;;;;;;5030949;28;20944;-87
2020/12/04 01:15:08;;;;;;;36.37;23.70;;;3.80;99.90;;;;;;5034639;28;20436;-86
2020/12/04 01:17:34;;;;;;;29.65;22.40;;;3.80;99.90;;;;;;5034113;28;20457;-87
2020/12/04 01:20:00;;;;;;;35.37;22.07;;;3.80;99.90;;;;;;5037345;28;20224;-86
2020/12/04 01:22:26;;;;;;;29.05;20.45;;;3.80;99.90;;;;;;5033051;28;20530;-87
2020/12/04 01:24:53;;;;;;;23.90;17.97;;;3.80;99.90;;;;;;5033141;28;20214;-86
2020/12/04 01:27:19;;;;;;;24.23;17.40;;;3.80;99.90;;;;;;5034947;28;20497;-87
2020/12/04 01:29:45;;;;;;;27.53;18.80;;;3.80;99.90;;;;;;5034813;28;20472;-87
2020/12/04 01:32:12;;;;;;;27.30;19.87;;;3.90;99.90;;;;;;5034999;28;20501;-88
2020/12/04 01:34:38;;;;;;;25.75;19.27;;;3.80;99.90;;;;;;5034366;28;20964;-87
2020/12/04 01:37:04;;;;;;;29.23;20.37;;;3.80;99.90;;;;;;5034867;28;20608;-87
2020/12/04 01:39:30;;;;;;;27.37;18.93;;;3.80;99.90;;;;;;5034601;28;20472;-87
2020/12/04 01:41:57;;;;;;;30.85;19.17;;;3.70;99.90;;;;;;5034411;28;20588;-88
2020/12/04 01:44:23;;;;;;;27.80;19.57;;;3.70;99.90;;;;;;5034134;28;20348;-88
2020/12/04 01:46:50;;;;;;;29.93;18.57;;;3.80;99.90;;;;;;5034804;28;20452;-88
2020/12/04 01:49:16;;;;;;;28.67;20.20;;;3.70;99.90;;;;;;5033156;28;20830;-88
2020/12/04 01:51:43;;;;;;;23.75;17.73;;;3.60;99.90;;;;;;5033310;28;20459;-88
2020/12/04 01:54:10;;;;;;;22.90;17.87;;;3.70;99.90;;;;;;5034519;28;20196;-88
2020/12/04 01:56:38;;;;;;;25.93;17.83;;;3.70;99.90;;;;;;5034275;28;20872;-88
2020/12/04 01:59:05;;;;;;;27.83;19.73;;;3.80;99.90;;;;;;5034411;28;20494;-88
2020/12/04 02:01:33;;;;;;;23.40;16.60;;;3.70;99.90;;;;;;5034237;28;20830;-87
2020/12/04 02:03:59;;;;;;;24.90;17.30;;;3.70;99.90;;;;;;5034144;28;20479;-86
2020/12/04 02:06:35;;;;;;;25.47;18.40;;;3.80;99.90;;;;;;5034383;28;20972;-85
2020/12/04 02:09:04;;;;;;;27.43;21.37;;;3.80;99.90;;;;;;5035604;28;20459;-85
2020/12/04 02:11:34;;;;;;;33.80;19.70;;;3.80;99.90;;;;;;5036153;28;20489;-85
2020/12/04 02:14:01;;;;;;;32.25;23.38;;;3.90;99.90;;;;;;5036879;28;20488;-85
2020/12/04 02:16:29;;;;;;;31.07;22.00;;;3.90;99.90;;;;;;5037631;28;20205;-85
2020/12/04 02:18:55;;;;;;;29.60;21.87;;;3.90;99.90;;;;;;5036794;28;20456;-85
2020/12/04 02:21:23;;;;;;;33.30;23.83;;;3.90;99.90;;;;;;5034259;28;20451;-85
2020/12/04 02:23:51;;;;;;;34.60;25.07;;;3.80;99.90;;;;;;5036629;28;20485;-86
2020/12/04 02:26:18;;;;;;;34.30;24.07;;;3.90;99.90;;;;;;5036382;28;20439;-85
2020/12/04 02:28:45;;;;;;;30.23;21.47;;;3.90;99.90;;;;;;5036348;28;20468;-85
2020/12/04 02:31:11;;;;;;;30.57;23.43;;;3.90;99.90;;;;;;5035857;28;20956;-86
2020/12/04 02:33:38;;;;;;;29.10;21.83;;;3.90;99.90;;;;;;5037851;28;20448;-87
2020/12/04 02:36:04;;;;;;;30.33;23.25;;;3.90;99.90;;;;;;5033403;28;20445;-85
2020/12/04 02:38:31;;;;;;;33.90;21.90;;;3.90;99.90;;;;;;5033741;28;21542;-87
2020/12/04 02:40:57;;;;;;;32.37;22.40;;;3.80;99.90;;;;;;5037308;28;20443;-87
2020/12/04 02:43:24;;;;;;;26.97;21.37;;;3.80;99.90;;;;;;5047903;28;20529;-86
2020/12/04 02:45:50;;;;;;;32.03;22.30;;;3.80;99.90;;;;;;5035614;28;20820;-86
2020/12/04 02:48:17;;;;;;;28.65;22.00;;;3.80;99.90;;;;;;5033753;28;20449;-86
2020/12/04 02:50:43;;;;;;;26.73;19.17;;;3.80;99.90;;;;;;5033412;28;20194;-86
2020/12/04 02:53:09;;;;;;;33.40;21.17;;;3.80;99.90;;;;;;5033376;28;20458;-86
2020/12/04 02:55:37;;;;;;;27.77;20.03;;;3.80;99.90;;;;;;5031508;28;20464;-86
2020/12/04 02:58:03;;;;;;;25.30;20.27;;;3.80;99.90;;;;;;5032718;28;20452;-85
2020/12/04 03:00:29;;;;;;;25.63;20.20;;;3.80;99.90;;;;;;5033252;28;20521;-86
2020/12/04 03:02:55;;;;;;;25.50;19.00;;;3.80;99.90;;;;;;5033348;28;20484;-86
2020/12/04 03:05:21;;;;;;;29.00;21.00;;;3.90;99.90;;;;;;5031939;28;20198;-86
2020/12/04 03:07:47;;;;;;;28.17;20.43;;;3.90;99.90;;;;;;5032713;28;20956;-86
2020/12/04 03:10:14;;;;;;;26.37;20.30;;;3.90;99.90;;;;;;5032868;28;21150;-85
2020/12/04 03:12:41;;;;;;;23.93;17.77;;;3.90;99.90;;;;;;5033631;28;20439;-85
2020/12/04 03:15:08;;;;;;;26.27;19.83;;;3.90;99.90;;;;;;5034019;28;20443;-84
2020/12/04 03:17:34;;;;;;;26.40;19.00;;;3.90;99.90;;;;;;5035322;28;21009;-86
2020/12/04 03:20:01;;;;;;;28.90;19.53;;;3.90;99.90;;;;;;5032461;28;20515;-86
2020/12/04 03:22:27;;;;;;;29.20;19.67;;;3.90;99.90;;;;;;5032944;28;20491;-86
2020/12/04 03:24:53;;;;;;;26.83;17.57;;;3.80;99.90;;;;;;5032387;28;20435;-85
2020/12/04 03:27:20;;;;;;;22.87;17.40;;;3.90;99.90;;;;;;5036023;28;20439;-85
2020/12/04 03:29:47;;;;;;;24.80;18.67;;;3.90;99.90;;;;;;5045318;28;20479;-85
2020/12/04 03:32:14;;;;;;;30.17;20.90;;;3.90;99.90;;;;;;5041452;28;20461;-86
2020/12/04 03:34:40;;;;;;;22.80;18.27;;;3.90;99.90;;;;;;5038901;28;20464;-85
2020/12/04 03:37:06;;;;;;;25.80;19.13;;;3.90;99.90;;;;;;5039432;28;20444;-86
2020/12/04 03:39:33;;;;;;;22.90;17.10;;;4.00;99.90;;;;;;5034644;28;20541;-86
2020/12/04 03:41:59;;;;;;;24.23;17.70;;;4.00;99.90;;;;;;5032480;28;20498;-87
2020/12/04 03:44:25;;;;;;;24.53;17.80;;;4.00;99.90;;;;;;5032226;28;20455;-87
2020/12/04 03:46:52;;;;;;;22.63;17.30;;;4.10;99.90;;;;;;5031770;28;20444;-86
2020/12/04 03:49:18;;;;;;;20.97;17.10;;;4.20;99.90;;;;;;5041570;28;20523;-86
2020/12/04 03:51:45;;;;;;;24.70;18.87;;;4.20;99.90;;;;;;5032393;28;20449;-86
2020/12/04 03:54:12;;;;;;;24.50;18.43;;;4.10;99.90;;;;;;5032408;28;20433;-86
2020/12/04 03:56:38;;;;;;;26.33;18.00;;;4.20;99.90;;;;;;5031796;28;20476;-86
2020/12/04 03:59:04;;;;;;;23.10;17.67;;;4.10;99.90;;;;;;5032296;28;20466;-86
2020/12/04 04:01:31;;;;;;;24.50;18.20;;;4.10;99.90;;;;;;5031796;28;20476;-86
2020/12/04 04:03:58;;;;;;;25.20;18.57;;;4.10;99.90;;;;;;5032509;28;20485;-86
2020/12/04 04:06:24;;;;;;;26.40;18.40;;;4.10;99.90;;;;;;5031568;28;20464;-87
2020/12/04 04:08:51;;;;;;;26.83;19.37;;;4.20;99.90;;;;;;5031929;28;20453;-87
2020/12/04 04:11:17;;;;;;;23.80;16.60;;;4.20;99.90;;;;;;5031779;28;20437;-86
2020/12/04 04:13:43;;;;;;;23.50;17.43;;;4.20;99.90;;;;;;5032433;28;20502;-87
2020/12/04 04:16:10;;;;;;;25.87;18.47;;;4.20;99.90;;;;;;5031877;28;20499;-87
2020/12/04 04:18:37;;;;;;;22.90;17.03;;;4.00;99.90;;;;;;5031998;28;20473;-87
2020/12/04 04:21:08;;;;;;;21.60;17.10;;;4.00;99.90;;;;;;5031855;28;21238;-86
2020/12/04 04:23:41;;;;;;;25.03;18.70;;;3.90;99.90;;;;;;5031402;28;20488;-86
2020/12/04 04:26:08;;;;;;;25.80;18.63;;;3.90;99.90;;;;;;5032145;28;20986;-87
2020/12/04 04:28:35;;;;;;;24.90;17.90;;;4.00;99.90;;;;;;5031583;28;20463;-87
2020/12/04 04:31:01;;;;;;;26.57;18.77;;;4.10;99.90;;;;;;5031712;28;20829;-86
2020/12/04 04:33:27;;;;;;;26.23;17.40;;;4.10;99.90;;;;;;5031732;28;20440;-86
2020/12/04 04:35:53;;;;;;;26.33;18.57;;;4.10;99.90;;;;;;5029716;28;20860;-86
2020/12/04 04:38:20;;;;;;;22.60;18.17;;;4.20;99.90;;;;;;5031407;28;20472;-86
2020/12/04 04:40:46;;;;;;;24.90;19.00;;;4.20;99.90;;;;;;5031697;28;20664;-86
2020/12/04 04:43:15;;;;;;;27.27;18.70;;;4.20;99.90;;;;;;5031118;28;20901;-87
2020/12/04 04:45:42;;;;;;;25.10;17.17;;;4.20;99.90;;;;;;5031620;28;20436;-86
2020/12/04 04:48:11;;;;;;;25.00;17.90;;;4.20;99.90;;;;;;5029384;28;20466;-86
2020/12/04 04:50:41;;;;;;;26.73;18.20;;;4.20;99.90;;;;;;5031303;28;20539;-86
2020/12/04 04:53:07;;;;;;;26.40;17.70;;;4.20;99.90;;;;;;5031210;28;20969;-88
2020/12/04 04:55:34;;;;;;;26.80;17.97;;;4.20;99.90;;;;;;5031303;28;20860;-86
2020/12/04 04:58:05;;;;;;;24.00;17.50;;;4.20;99.90;;;;;;5030751;28;20444;-86
2020/12/04 05:00:31;;;;;;;24.90;18.50;;;4.20;99.90;;;;;;5030916;28;20995;-85
2020/12/04 05:02:57;;;;;;;29.80;18.90;;;4.20;99.90;;;;;;5038607;28;20479;-86
2020/12/04 05:05:40;;;;;;;25.23;18.47;;;4.20;99.90;;;;;;5046844;28;20435;-88
2020/12/04 05:08:10;;;;;;;23.70;18.27;;;4.20;99.90;;;;;;5031717;28;20495;-86
2020/12/04 05:10:37;;;;;;;23.33;17.40;;;4.10;99.90;;;;;;5031663;28;20440;-85
2020/12/04 05:13:03;;;;;;;24.43;16.80;;;4.20;99.90;;;;;;5033246;28;20494;-86
2020/12/04 05:15:31;;;;;;;21.77;18.47;;;4.10;99.90;;;;;;5031559;28;20434;-86
2020/12/04 05:18:05;;;;;;;24.00;17.70;;;4.00;99.90;;;;;;5031206;28;20448;-86
2020/12/04 05:20:31;;;;;;;25.13;17.00;;;4.00;99.90;;;;;;5030334;28;20444;-87
2020/12/04 05:22:58;;;;;;;22.53;17.40;;;4.00;99.90;;;;;;5031294;28;20900;-87
2020/12/04 05:25:25;;;;;;;24.47;17.90;;;4.10;99.90;;;;;;5029332;28;20445;-86
2020/12/04 05:27:52;;;;;;;23.73;17.50;;;4.20;99.90;;;;;;5030876;28;20445;-86
2020/12/04 05:30:25;;;;;;;26.00;19.57;;;4.30;99.90;;;;;;5031186;28;20946;-87
2020/12/04 05:32:59;;;;;;;22.23;17.97;;;4.30;99.90;;;;;;5030875;28;20459;-86
2020/12/04 05:35:25;;;;;;;28.50;17.33;;;4.30;99.90;;;;;;5029217;28;20760;-86
2020/12/04 05:38:05;;;;;;;22.67;17.23;;;4.40;99.90;;;;;;5030828;28;20453;-87
2020/12/04 05:40:31;;;;;;;28.50;18.13;;;4.40;99.90;;;;;;5030449;28;20451;-87
2020/12/04 05:42:58;;;;;;;22.93;16.80;;;4.40;99.90;;;;;;5030227;28;20477;-87
2020/12/04 05:45:24;;;;;;;27.37;19.53;;;4.40;99.90;;;;;;5028831;28;20436;-87
2020/12/04 05:47:51;;;;;;;25.33;18.20;;;4.40;99.90;;;;;;5031502;28;20949;-86
2020/12/04 05:50:17;;;;;;;22.77;16.20;;;4.40;99.90;;;;;;5031204;28;20449;-87
2020/12/04 05:52:43;;;;;;;25.50;18.37;;;4.40;99.90;;;;;;5033585;28;20449;-86
2020/12/04 05:55:10;;;;;;;26.30;17.30;;;4.40;99.90;;;;;;5032961;28;20435;-86
2020/12/04 05:57:44;;;;;;;28.00;19.70;;;4.40;99.90;;;;;;5030905;28;20437;-87
2020/12/04 06:00:12;;;;;;;29.20;18.87;;;4.40;99.90;;;;;;5031782;28;20547;-86
2020/12/04 06:02:39;;;;;;;27.53;18.87;;;4.50;99.90;;;;;;5033227;28;20481;-86
2020/12/04 06:05:05;;;;;;;24.80;19.30;;;4.40;99.90;;;;;;5033182;28;20445;-87
2020/12/04 06:07:31;;;;;;;29.90;19.10;;;4.40;99.90;;;;;;5030519;28;20475;-87
2020/12/04 06:09:58;;;;;;;28.13;19.13;;;4.50;99.90;;;;;;5031934;28;20488;-87
2020/12/04 06:12:25;;;;;;;24.10;17.30;;;4.50;99.90;;;;;;5034180;28;20447;-86
2020/12/04 06:14:52;;;;;;;32.77;18.50;;;4.50;99.90;;;;;;5034209;28;20444;-87
2020/12/04 06:17:19;;;;;;;28.27;17.90;;;4.50;99.90;;;;;;5034038;28;20441;-87
2020/12/04 06:19:45;;;;;;;24.97;18.20;;;4.40;99.90;;;;;;5034380;28;20522;-87
2020/12/04 06:22:13;;;;;;;26.53;19.30;;;4.40;99.90;;;;;;5039891;28;20444;-89
2020/12/04 06:25:03;;;;;;;24.73;17.70;;;4.50;99.90;;;;;;5033345;28;20475;-87
2020/12/04 06:27:41;;;;;;;24.20;17.80;;;4.40;99.90;;;;;;5034417;28;20455;-86
2020/12/04 06:30:08;;;;;;;27.00;19.57;;;4.40;99.90;;;;;;5033913;28;20494;-87
2020/12/04 06:32:37;;;;;;;27.97;18.87;;;4.40;99.90;;;;;;5033513;28;20444;-87
2020/12/04 06:35:04;;;;;;;28.87;18.30;;;4.30;99.90;;;;;;5034142;28;20447;-87
2020/12/04 06:37:35;;;;;;;24.10;16.40;;;4.30;99.90;;;;;;5033551;28;20820;-86
2020/12/04 06:40:26;;;;;;;24.43;17.03;;;4.30;99.90;;;;;;5033650;28;20469;-87
2020/12/04 06:42:53;;;;;;;24.43;18.00;;;4.30;99.90;;;;;;5033318;28;20488;-86
2020/12/04 06:45:20;;;;;;;20.17;14.07;;;4.40;99.90;;;;;;5032724;28;20545;-87
2020/12/04 06:48:11;;;;;;;18.60;13.63;;;4.40;99.90;;;;;;5033552;28;20452;-87
2020/12/04 06:50:39;;;;;;;26.50;15.27;;;4.30;99.90;;;;;;5031356;28;20560;-87
2020/12/04 06:53:06;;;;;;;19.87;12.90;;;4.30;99.90;;;;;;5034150;28;20440;-87
2020/12/04 06:55:33;;;;;;;21.53;16.27;;;4.30;99.90;;;;;;5033116;28;20440;-87
2020/12/04 06:57:59;;;;;;;22.75;14.48;;;4.30;99.90;;;;;;5038166;28;20423;-86
2020/12/04 07:00:25;;;;;;;25.40;15.80;;;4.40;99.90;;;;;;5033442;28;20289;-86
2020/12/04 07:02:52;;;;;;;22.03;15.93;;;4.40;99.90;;;;;;5033717;28;21028;-87
2020/12/04 07:05:23;;;;;;;24.17;17.43;;;4.40;99.90;;;;;;5033119;28;20451;-87
2020/12/04 07:07:49;;;;;;;22.20;16.23;;;4.40;99.90;;;;;;5033157;28;21016;-86
2020/12/04 07:10:15;;;;;;;28.97;15.93;;;4.40;99.90;;;;;;5036992;28;20441;-85
2020/12/04 07:12:42;;;;;;;27.10;16.27;;;4.40;99.90;;;;;;5036892;28;20447;-85
2020/12/04 07:15:08;;;;;;;27.60;16.80;;;4.30;99.90;;;;;;5032693;28;20436;-87
2020/12/04 07:17:34;;;;;;;19.20;14.90;;;4.40;99.90;;;;;;5035614;28;20444;-87
2020/12/04 07:20:01;;;;;;;19.50;14.73;;;4.40;99.90;;;;;;5041745;28;20475;-87
2020/12/04 07:22:28;;;;;;;19.20;14.43;;;4.40;99.90;;;;;;5031929;28;20452;-87
2020/12/04 07:24:56;;;;;;;23.03;15.50;;;4.40;99.90;;;;;;5031313;28;20452;-87
2020/12/04 07:27:26;;;;;;;20.13;14.90;;;4.40;99.90;;;;;;5044743;28;20429;-88
2020/12/04 07:29:52;;;;;;;20.00;14.27;;;4.40;99.90;;;;;;5052442;28;20471;-87
2020/12/04 07:32:20;;;;;;;20.07;14.20;;;4.50;99.90;;;;;;5032659;28;20456;-87
2020/12/04 07:34:47;;;;;;;20.13;15.80;;;4.50;99.90;;;;;;5034607;28;21004;-86
2020/12/04 07:37:13;;;;;;;21.87;15.37;;;4.50;99.90;;;;;;5033845;28;20476;-86
2020/12/04 07:39:42;;;;;;;22.53;17.37;;;4.60;99.90;;;;;;5035193;28;20480;-87
2020/12/04 07:42:09;;;;;;;29.57;18.20;;;4.60;99.90;;;;;;5032041;28;20452;-87
2020/12/04 07:44:37;;;;;;;27.40;17.60;;;4.60;99.90;;;;;;5040306;28;20500;-87
2020/12/04 07:47:06;;;;;;;28.63;17.70;;;4.60;99.90;;;;;;5032190;28;20961;-87
2020/12/04 07:49:34;;;;;;;31.03;16.93;;;4.50;99.90;;;;;;5032675;28;20457;-86
2020/12/04 07:52:14;;;;;;;28.07;18.87;;;4.50;99.90;;;;;;5032364;28;20451;-86
2020/12/04 07:54:42;;;;;;;25.67;18.30;;;4.50;99.90;;;;;;5031393;28;20448;-86
2020/12/04 07:57:09;;;;;;;27.70;17.83;;;4.50;99.90;;;;;;5028463;28;20453;-86
2020/12/04 07:59:38;;;;;;;27.77;17.87;;;4.50;99.90;;;;;;5032804;28;20456;-86
2020/12/04 08:02:05;;;;;;;28.30;17.93;;;4.50;99.90;;;;;;5032019;28;20484;-86
2020/12/04 08:04:32;;;;;;;29.50;18.90;;;4.60;99.90;;;;;;5031333;28;20483;-88
2020/12/04 08:07:08;;;;;;;35.23;18.03;;;4.60;99.90;;;;;;5030920;28;20876;-86
2020/12/04 08:09:38;;;;;;;30.60;17.47;;;4.60;99.90;;;;;;5031821;28;20479;-86
2020/12/04 08:12:10;;;;;;;23.70;16.40;;;4.60;99.90;;;;;;5031651;28;20555;-87
2020/12/04 08:14:39;;;;;;;20.47;16.97;;;4.70;99.90;;;;;;5032706;28;20444;-86
2020/12/04 08:17:06;;;;;;;19.40;15.97;;;4.70;99.90;;;;;;5039672;28;20481;-85
2020/12/04 08:19:35;;;;;;;23.77;14.37;;;4.80;99.90;;;;;;5035031;28;20556;-86
2020/12/04 08:22:04;;;;;;;25.37;15.40;;;4.80;99.90;;;;;;5036103;28;20948;-84
2020/12/04 08:24:33;;;;;;;19.70;15.03;;;4.90;99.90;;;;;;5035817;28;20491;-86
2020/12/04 08:27:05;;;;;;;19.47;14.77;;;5.00;99.90;;;;;;5031887;28;20508;-87
2020/12/04 08:29:31;;;;;;;22.20;16.77;;;5.00;99.90;;;;;;5032037;28;21027;-87
2020/12/04 08:32:18;;;;;;;28.43;17.73;;;5.10;99.90;;;;;;5031873;28;20441;-87
2020/12/04 08:34:44;;;;;;;25.23;16.90;;;5.20;99.90;;;;;;5029231;28;20449;-87
2020/12/04 08:37:12;;;;;;;31.33;19.20;;;5.30;99.90;;;;;;5026561;28;20458;-88
2020/12/04 08:39:44;;;;;;;22.23;17.23;;;5.30;99.90;;;;;;5032376;28;20460;-87
2020/12/04 08:42:20;;;;;;;24.60;17.60;;;5.30;99.90;;;;;;5044840;28;20988;-88
2020/12/04 08:44:58;;;;;;;27.87;17.13;;;5.40;99.90;;;;;;5030873;28;20480;-88
2020/12/04 08:47:30;;;;;;;26.90;19.40;;;5.40;99.90;;;;;;5031134;28;20448;-88
2020/12/04 08:49:57;;;;;;;24.83;16.83;;;5.50;99.90;;;;;;5029108;28;20456;-87
2020/12/04 08:52:40;;;;;;;23.13;17.03;;;5.70;99.90;;;;;;5031145;28;20445;-87
2020/12/04 08:55:08;;;;;;;23.17;17.93;;;5.70;99.60;;;;;;5031080;28;20444;-88
2020/12/04 08:57:35;;;;;;;23.93;17.53;;;5.70;99.70;;;;;;5030774;28;20453;-87
2020/12/04 09:00:01;;;;;;;22.53;15.80;;;5.80;99.70;;;;;;5031139;28;20453;-87
2020/12/04 09:02:28;;;;;;;25.80;16.87;;;5.70;99.50;;;;;;5030852;28;20441;-88
2020/12/04 09:04:54;;;;;;;22.00;16.00;;;5.60;99.70;;;;;;5034300;28;20457;-84
2020/12/04 09:07:20;;;;;;;23.97;18.80;;;5.80;99.90;;;;;;5032248;28;20488;-87
2020/12/04 09:09:46;;;;;;;29.07;18.23;;;6.00;99.80;;;;;;5031049;28;20464;-86
2020/12/04 09:12:12;;;;;;;27.00;18.27;;;6.00;99.20;;;;;;5030723;28;20453;-87
2020/12/04 09:14:40;;;;;;;28.20;19.60;;;6.00;99.30;;;;;;5030789;28;20957;-86
2020/12/04 09:17:06;;;;;;;28.33;16.70;;;6.10;99.20;;;;;;5031130;28;20469;-87
2020/12/04 09:19:32;;;;;;;30.50;19.53;;;6.40;99.40;;;;;;5031095;28;20488;-86
2020/12/04 09:21:58;;;;;;;31.87;20.27;;;6.50;98.60;;;;;;5031227;28;20445;-86
2020/12/04 09:24:25;;;;;;;24.47;18.30;;;6.70;98.20;;;;;;5029609;28;20531;-86
2020/12/04 09:26:51;;;;;;;31.17;17.57;;;6.80;97.80;;;;;;5030932;28;20437;-86
2020/12/04 09:29:17;;;;;;;28.40;15.33;;;6.60;97.40;;;;;;5030902;28;20472;-86
2020/12/04 09:31:44;;;;;;;22.80;15.70;;;6.60;97.30;;;;;;5031122;28;20449;-86
2020/12/04 09:34:10;;;;;;;27.20;16.87;;;6.50;97.60;;;;;;5028856;28;20791;-86
2020/12/04 09:36:36;;;;;;;26.40;17.90;;;6.40;97.70;;;;;;5030193;28;20449;-86
2020/12/04 09:39:03;;;;;;;29.23;17.93;;;6.40;98.10;;;;;;5030998;28;20461;-86
2020/12/04 09:41:29;;;;;;;24.43;16.07;;;6.40;98.10;;;;;;5030600;28;20457;-86
2020/12/04 09:43:55;;;;;;;25.87;16.10;;;6.40;98.30;;;;;;5028643;28;20564;-86
2020/12/04 09:46:21;;;;;;;23.80;16.00;;;6.60;98.30;;;;;;5033312;28;20461;-86
2020/12/04 09:48:48;;;;;;;25.40;18.20;;;6.60;98.30;;;;;;5034444;28;20469;-86
2020/12/04 09:51:14;;;;;;;24.53;15.17;;;6.60;98.40;;;;;;5034716;28;20946;-86
2020/12/04 09:53:41;;;;;;;20.30;15.67;;;6.60;98.10;;;;;;5048033;28;20421;-87
2020/12/04 09:56:07;;;;;;;20.27;15.83;;;6.60;98.00;;;;;;5049505;28;20449;-85
2020/12/04 09:58:33;;;;;;;21.60;16.53;;;6.50;98.10;;;;;;5034375;28;20476;-86
2020/12/04 10:00:59;;;;;;;23.20;15.00;;;6.50;98.10;;;;;;5034482;28;20512;-86
2020/12/04 10:03:25;;;;;;;21.53;16.00;;;6.40;98.30;;;;;;5036166;28;20480;-85
2020/12/04 10:05:52;;;;;;;20.97;16.97;;;6.50;98.40;;;;;;5039321;28;20502;-86
2020/12/04 10:08:18;;;;;;;24.73;17.50;;;6.40;98.30;;;;;;5035077;28;20480;-87
2020/12/04 10:10:44;;;;;;;17.67;14.20;;;6.40;98.20;;;;;;5034626;28;20468;-87
2020/12/04 10:13:11;;;;;;;26.43;18.27;;;6.50;98.10;;;;;;5034264;28;20484;-87
2020/12/04 10:15:37;;;;;;;19.17;15.13;;;6.50;98.10;;;;;;5033787;28;20444;-87
2020/12/04 10:18:06;;;;;;;19.07;14.83;;;6.60;98.40;;;;;;5033486;28;20437;-86
2020/12/04 10:20:32;;;;;;;17.83;15.00;;;6.50;98.30;;;;;;5034470;28;20641;-87
2020/12/04 10:23:00;;;;;;;24.30;16.53;;;6.50;98.30;;;;;;5033834;28;20460;-87
2020/12/04 10:25:26;;;;;;;25.30;16.53;;;6.50;98.30;;;;;;5031354;28;20441;-87
2020/12/04 10:27:52;;;;;;;26.90;16.30;;;6.50;98.50;;;;;;5037574;28;20449;-87
2020/12/04 10:30:18;;;;;;;21.17;16.40;;;6.50;98.50;;;;;;5033710;28;20516;-86
2020/12/04 10:32:44;;;;;;;23.03;15.37;;;6.50;98.40;;;;;;5033668;28;20503;-87
2020/12/04 10:35:10;;;;;;;20.70;16.93;;;6.30;98.50;;;;;;5033840;28;20442;-87
2020/12/04 10:37:36;;;;;;;23.67;17.67;;;6.30;98.70;;;;;;5034786;28;20706;-86
2020/12/04 10:40:03;;;;;;;20.23;16.07;;;6.40;98.70;;;;;;5036170;28;20460;-86
2020/12/04 10:42:30;;;;;;;22.60;17.00;;;6.40;98.80;;;;;;5034108;28;20458;-86
2020/12/04 10:44:56;;;;;;;21.77;15.83;;;6.40;98.80;;;;;;5036045;28;20480;-87
2020/12/04 10:47:22;;;;;;;24.37;17.07;;;6.40;98.70;;;;;;5033718;28;20449;-88
2020/12/04 10:49:48;;;;;;;21.77;15.60;;;6.50;98.70;;;;;;5033197;28;20460;-87
2020/12/04 10:52:14;;;;;;;21.57;17.40;;;6.50;98.80;;;;;;5032820;28;20515;-87
2020/12/04 10:54:40;;;;;;;21.57;16.03;;;6.60;98.90;;;;;;5033804;28;20477;-86
2020/12/04 10:57:07;;;;;;;24.37;15.83;;;6.60;98.80;;;;;;5037405;28;20441;-85
2020/12/04 10:59:33;;;;;;;36.07;18.00;;;6.70;98.50;;;;;;5033399;28;20457;-86
2020/12/04 11:02:07;;;;;;;18.03;14.03;;;6.70;98.20;;;;;;5032783;28;21020;-87
2020/12/04 11:07:18;;;;;;;21.80;16.23;;;6.90;98.20;;;;;;5032859;28;20475;-86
2020/12/04 11:09:44;;;;;;;21.77;16.47;;;6.90;98.20;;;;;;5033323;28;20468;-86
2020/12/04 11:12:11;;;;;;;24.07;16.63;;;6.90;98.10;;;;;;5033119;28;20565;-86
2020/12/04 11:14:43;;;;;;;25.37;15.90;;;7.00;97.90;;;;;;5033682;28;20430;-86
2020/12/04 11:17:09;;;;;;;22.10;17.27;;;6.90;98.10;;;;;;5032697;28;20453;-87
2020/12/04 11:19:35;;;;;;;19.90;15.60;;;6.80;98.30;;;;;;5033288;28;20465;-86
2020/12/04 11:22:01;;;;;;;24.73;16.13;;;6.80;98.20;;;;;;5031833;28;20445;-87
2020/12/04 11:24:27;;;;;;;22.23;16.20;;;6.90;98.40;;;;;;5033336;28;20485;-87
2020/12/04 11:26:53;;;;;;;23.93;16.03;;;6.80;98.50;;;;;;5032142;28;20433;-86
2020/12/04 11:29:20;;;;;;;26.27;17.30;;;6.80;98.60;;;;;;5032532;28;20551;-87
2020/12/04 11:31:47;;;;;;;21.93;15.63;;;6.90;98.60;;;;;;5032192;28;20453;-85
2020/12/04 11:34:13;;;;;;;19.37;15.90;;;7.00;98.40;;;;;;5032839;28;20516;-86
2020/12/04 11:36:39;;;;;;;24.10;15.73;;;6.90;98.30;;;;;;5032432;28;20445;-85
2020/12/04 11:39:05;;;;;;;25.70;17.13;;;6.90;98.60;;;;;;5033366;28;20477;-86
2020/12/04 11:41:31;;;;;;;18.80;14.50;;;7.00;98.20;;;;;;5037895;28;20472;-86
2020/12/04 11:43:58;;;;;;;23.13;14.80;;;7.00;98.30;;;;;;5042516;28;20465;-86
2020/12/04 11:46:25;;;;;;;14.43;12.87;;;7.10;97.70;;;;;;5031797;28;20441;-87
2020/12/04 11:48:51;;;;;;;20.60;14.10;;;7.00;97.50;;;;;;5037840;28;20450;-87
2020/12/04 11:51:17;;;;;;;17.33;14.03;;;7.00;97.70;;;;;;5032394;28;20455;-87
2020/12/04 11:53:43;;;;;;;16.70;13.67;;;7.10;97.60;;;;;;5032764;28;20448;-86
2020/12/04 11:56:09;;;;;;;18.27;14.90;;;7.00;97.70;;;;;;5030292;28;20453;-87
2020/12/04 11:58:35;;;;;;;16.20;12.30;;;7.10;97.80;;;;;;5028386;28;20449;-87
2020/12/04 12:01:01;;;;;;;17.07;13.20;;;7.10;97.50;;;;;;5031727;28;20464;-86
2020/12/04 12:03:28;;;;;;;19.10;13.63;;;7.10;97.80;;;;;;5032020;28;20480;-86
2020/12/04 12:05:55;;;;;;;18.63;14.73;;;7.00;98.10;;;;;;5031544;28;20457;-87
2020/12/04 12:08:21;;;;;;;15.53;12.60;;;7.00;98.30;;;;;;5031477;28;20457;-88
2020/12/04 12:10:47;;;;;;;17.33;13.43;;;7.00;98.40;;;;;;5035598;28;21004;-83
2020/12/04 12:13:13;;;;;;;16.53;12.90;;;7.00;98.40;;;;;;5038779;28;20453;-83
2020/12/04 12:15:39;;;;;;;13.40;12.00;;;6.90;98.30;;;;;;5038981;28;20946;-84
2020/12/04 12:18:05;;;;;;;19.20;12.37;;;6.90;98.60;;;;;;5044169;28;20460;-85
2020/12/04 12:20:33;;;;;;;16.40;13.53;;;6.90;98.70;;;;;;5045553;28;20834;-85
2020/12/04 12:22:59;;;;;;;14.87;12.43;;;6.70;99.00;;;;;;5033429;28;20445;-87
2020/12/04 12:25:25;;;;;;;15.23;11.93;;;6.70;99.60;;;;;;5031263;28;20551;-88
2020/12/04 12:27:52;;;;;;;20.50;13.87;;;6.80;99.30;;;;;;5032088;28;20866;-88
2020/12/04 12:30:18;;;;;;;18.13;12.53;;;6.90;99.30;;;;;;5032416;28;20528;-88
2020/12/04 12:32:44;;;;;;;14.07;11.77;;;6.90;99.20;;;;;;5032668;28;20586;-89
2020/12/04 12:35:12;;;;;;;14.73;11.33;;;7.00;99.30;;;;;;5030365;28;20488;-89
2020/12/04 12:37:42;;;;;;;15.23;12.33;;;7.00;99.30;;;;;;5032062;28;20456;-88
2020/12/04 12:40:10;;;;;;;17.97;12.93;;;7.00;99.30;;;;;;5031899;28;20549;-88